createdAt,value
2023-04-16T00:01:59.225Z,11.99
2023-04-16T00:17:00.921Z,11.79
2023-04-16T00:32:02.575Z,12.17
2023-04-16T00:47:04.700Z,12.06
2023-04-16T01:02:09.212Z,10.90
2023-04-16T01:17:11.226Z,11.59
2023-04-16T01:32:12.907Z,8.26
2023-04-16T01:47:14.760Z,10.78
2023-04-16T02:02:16.644Z,10.72
2023-04-16T02:17:18.480Z,10.65
2023-04-16T02:32:20.829Z,10.86
2023-04-16T02:47:22.421Z,10.75
2023-04-16T03:02:24.300Z,10.58
2023-04-16T03:17:26.083Z,8.60
2023-04-16T03:32:27.950Z,9.75
2023-04-16T03:47:29.790Z,10.00
2023-04-16T04:02:31.725Z,7.61
2023-04-16T04:17:33.446Z,9.55
2023-04-16T04:32:35.177Z,8.76
2023-04-16T04:47:36.889Z,9.70
2023-04-16T05:02:38.802Z,10.85
2023-04-16T05:17:40.616Z,11.31
2023-04-16T05:32:42.382Z,11.45
2023-04-16T05:47:44.367Z,11.38
2023-04-16T06:02:46.257Z,10.43
2023-04-16T06:17:48.023Z,11.96
2023-04-16T06:32:49.970Z,9.56
2023-04-16T06:47:52.458Z,12.45
2023-04-16T07:02:57.002Z,13.16
2023-04-16T07:18:00.029Z,12.65
2023-04-16T07:33:05.945Z,12.05
2023-04-16T07:48:07.730Z,13.14
2023-04-16T08:03:09.681Z,13.15
2023-04-16T08:18:15.600Z,13.07
2023-04-16T08:33:17.262Z,14.72
2023-04-16T08:48:21.437Z,13.26
2023-04-16T09:03:23.366Z,14.14
2023-04-16T09:18:25.828Z,14.89
2023-04-16T09:33:27.540Z,15.03
2023-04-16T09:48:33.709Z,14.90
2023-04-16T10:03:37.074Z,15.28
2023-04-16T10:18:41.037Z,15.25
2023-04-16T10:33:44.305Z,16.21
2023-04-16T10:48:50.195Z,16.31
2023-04-16T11:03:52.572Z,14.38
2023-04-16T11:18:56.345Z,13.51
2023-04-16T11:33:59.507Z,15.70
2023-04-16T11:49:01.191Z,15.51
2023-04-16T12:04:03.653Z,16.08
2023-04-16T12:19:06.049Z,16.98
2023-04-16T12:34:07.923Z,13.62
2023-04-16T12:49:11.309Z,15.92
2023-04-16T13:04:13.304Z,16.63
2023-04-16T13:19:16.028Z,12.89
2023-04-16T13:34:17.804Z,14.25
2023-04-16T13:49:19.550Z,12.29
2023-04-16T14:04:22.542Z,12.75
2023-04-16T14:19:24.329Z,12.62
2023-04-16T14:34:26.125Z,12.19
2023-04-16T14:49:27.782Z,14.33
2023-04-16T15:04:30.151Z,13.99
2023-04-16T15:19:31.948Z,13.13
2023-04-16T15:34:33.576Z,12.07
2023-04-16T15:49:35.580Z,13.37
2023-04-16T16:04:37.380Z,12.06
2023-04-16T16:19:39.179Z,12.56
2023-04-16T16:34:42.025Z,13.63
2023-04-16T16:49:44.611Z,11.61
2023-04-16T17:04:46.356Z,11.34
2023-04-16T17:19:47.986Z,10.86
2023-04-16T17:34:49.660Z,11.96
2023-04-16T17:49:57.177Z,11.38
2023-04-16T18:04:58.941Z,10.80
2023-04-16T18:20:00.826Z,10.86
2023-04-16T18:35:02.539Z,10.07
2023-04-16T18:50:04.577Z,11.29
2023-04-16T19:05:06.745Z,11.52
2023-04-16T19:20:11.516Z,11.38
2023-04-16T19:35:14.553Z,12.15
2023-04-16T19:50:16.294Z,10.97
2023-04-16T20:05:17.979Z,11.18
2023-04-16T20:20:19.708Z,10.23
2023-04-16T20:35:21.344Z,9.54
2023-04-16T20:50:22.834Z,12.46
2023-04-16T21:05:26.595Z,10.11
2023-04-16T21:20:30.360Z,10.41
2023-04-16T21:35:33.235Z,12.30
2023-04-16T21:50:34.920Z,11.74
2023-04-16T22:05:36.520Z,10.09
2023-04-16T22:20:39.785Z,10.18
2023-04-16T22:35:41.431Z,10.71
2023-04-16T22:50:48.678Z,11.56
2023-04-16T23:05:50.412Z,10.88
2023-04-16T23:20:53.175Z,12.55
2023-04-16T23:35:54.851Z,10.45
2023-04-16T23:50:56.537Z,11.68
